19:34
Airports
History
Links
Donate
Help keep this website running!
PayPal
Bitcoin
Information on this page is community maintained and may be outdated or inaccurate and is intended for reference only or PC simulator navigating.
Always use approved charts for navigating.
LIQL
Lucca Tassignano
Lucca Tassignano (LIQL)
Capannori, Toscana, Italy (55012)
(U)
Lat/Lng:43° 49' 42.16" N / 10° 34' 42.25" E
43.828377 / 10.578404
Elevation:39'ft 12mMSL
ID / ICAO:LIQL
Runways:1
Longest:(10-28) 917.3m 3,010ft Asphalt
Distance To
Airport ID:
Nearby VORs <50NM
Nearby NDBs
Nearby WeatherUpdated 05-27-17 19:15 GMT
Nearby weather at LIRP, PISA located 13.6 nautical miles from LIQL
Altimeter: 30.06
Visibility: 6.2 statute miles
Wind: 4 knots (320°)
Temp: 23°c 73°f
Humidity: 38.2%

METAR: LIRP 271915Z 32004KT CAVOK 23/08 Q1018 NOSIG

(Powered by phpweather)
Runway 10 / 28
Dimensions:917.3 x 18.3m 3010' x 60'ft
Surface:Asphalt
Edge Lights:Medium intensity
Runway 10 [A]Runway 28 [B]
Heading:097°TH 277°TH
Lat:
Lng:
43° 49' 43.95"N
10° 34' 21.97"E
43° 49' 40.36"N
10° 35' 2.54"E
ALS:RAILRAIL
User Notes and Comments
Google Map
Nearby Airports
(C) PISA 13.6 NM
LIRP (WX) SW 222°
4 Massa Cinquale 24.2 NM
LILQ WNW 296°
(C) Firenze 31.3 NM
LIRQ (WX) E 92°
(U) Sarzana Luni 34.4 NM
LIQW (WX) WNW 301°
4 Pavullo 36.3 NM
LIDP NNE 20°
(U) AMPUGNANO 52.1 NM
LIQS SE 139°
(R) Modena Marzaglia 56.9 NM
LIPM N 11°
VFR Chart
Flight Planning at SkyVector.com